Time;durP1;ratioP1;P1;durP2;ratioP2;P2;SDS_P1;SDS_P2;PMS_P1;PMS_P2;Temp;Humidity;BMP_temperature;BMP_pressure;BME280_temperature;BME280_humidity;BME280_pressure;Samples;Min_cycle;Max_cycle;Signal;HPM_P1;HPM_P2
2021/07/26 00:01:51;;;;;;;11.93;8.77;;;;;;;;;;5053432;28;20021;-72
2021/07/26 00:04:18;;;;;;;11.15;9.18;;;;;;;;;;5051977;28;20029;-72
2021/07/26 00:06:46;;;;;;;10.27;8.88;;;;;;;;;;5053027;28;20100;-72
2021/07/26 00:09:12;;;;;;;14.98;9.15;;;;;;;;;;5053147;28;20505;-72
2021/07/26 00:11:38;;;;;;;13.43;8.82;;;;;;;;;;5053028;28;20412;-72
2021/07/26 00:14:05;;;;;;;11.55;9.73;;;;;;;;;;5053091;28;20113;-71
2021/07/26 00:16:31;;;;;;;10.70;8.90;;;;;;;;;;5053004;28;20029;-71
2021/07/26 00:18:57;;;;;;;10.52;9.00;;;;;;;;;;5052960;28;20063;-71
2021/07/26 00:21:23;;;;;;;14.52;9.40;;;;;;;;;;5052698;28;20549;-72
2021/07/26 00:23:50;;;;;;;14.98;9.65;;;;;;;;;;5052766;28;20052;-72
2021/07/26 00:26:17;;;;;;;10.40;9.30;;;;;;;;;;5037395;28;20498;-73
2021/07/26 00:28:43;;;;;;;14.48;9.40;;;;;;;;;;5032961;28;20034;-72
2021/07/26 00:31:09;;;;;;;10.48;9.48;;;;;;;;;;5031642;28;20030;-72
2021/07/26 00:34:20;;;;;;;14.48;9.52;;;;;;;;;;5032938;28;20477;-72
2021/07/26 00:36:54;;;;;;;12.55;9.57;;;;;;;;;;4971881;28;20039;-72
2021/07/26 00:39:21;;;;;;;14.30;9.38;;;;;;;;;;4955476;28;20112;-72
2021/07/26 00:41:47;;;;;;;17.42;9.82;;;;;;;;;;5006580;28;20445;-72
2021/07/26 00:44:14;;;;;;;12.50;9.50;;;;;;;;;;5032873;28;20026;-72
2021/07/26 00:46:41;;;;;;;15.93;10.32;;;;;;;;;;5032746;28;20029;-73
2021/07/26 00:49:10;;;;;;;19.90;10.63;;;;;;;;;;5031489;28;20037;-73
2021/07/26 00:51:38;;;;;;;16.60;10.35;;;;;;;;;;5031507;28;20028;-72
2021/07/26 00:54:04;;;;;;;10.40;9.00;;;;;;;;;;5032763;28;20025;-71
2021/07/26 00:56:31;;;;;;;15.10;9.18;;;;;;;;;;5032682;28;20112;-71
2021/07/26 00:58:58;;;;;;;17.73;9.30;;;;;;;;;;5031381;28;20378;-70
2021/07/26 01:01:24;;;;;;;13.65;9.48;;;;;;;;;;5031415;28;20098;-70
2021/07/26 01:03:51;;;;;;;10.20;8.93;;;;;;;;;;5032943;28;20184;-70
2021/07/26 01:06:17;;;;;;;14.25;9.23;;;;;;;;;;5032813;28;20025;-70
2021/07/26 01:08:45;;;;;;;11.57;8.82;;;;;;;;;;5031016;28;20091;-71
2021/07/26 01:11:11;;;;;;;16.73;9.35;;;;;;;;;;5032623;28;20021;-69
2021/07/26 01:13:37;;;;;;;14.30;9.20;;;;;;;;;;5032274;28;20367;-69
2021/07/26 01:16:03;;;;;;;18.73;8.45;;;;;;;;;;5032850;28;20032;-71
2021/07/26 01:18:33;;;;;;;17.15;9.18;;;;;;;;;;5030903;28;20021;-70
2021/07/26 01:21:04;;;;;;;19.45;9.75;;;;;;;;;;5032506;28;20029;-70
2021/07/26 01:23:31;;;;;;;21.10;10.98;;;;;;;;;;5032491;28;20523;-71
2021/07/26 01:25:58;;;;;;;17.58;10.23;;;;;;;;;;5032233;28;20030;-71
2021/07/26 01:28:26;;;;;;;18.10;10.63;;;;;;;;;;5032437;28;20022;-69
2021/07/26 01:30:52;;;;;;;22.60;10.52;;;;;;;;;;5032247;28;20351;-70
2021/07/26 01:33:18;;;;;;;16.27;10.18;;;;;;;;;;5032136;28;20111;-71
2021/07/26 01:35:45;;;;;;;15.30;9.38;;;;;;;;;;5032747;28;20120;-72
2021/07/26 01:38:12;;;;;;;11.77;8.25;;;;;;;;;;5034578;28;20107;-73
2021/07/26 01:40:40;;;;;;;11.40;8.20;;;;;;;;;;5036139;28;20144;-72
2021/07/26 01:43:09;;;;;;;10.25;7.78;;;;;;;;;;5035533;28;20359;-71
2021/07/26 01:45:35;;;;;;;16.45;8.70;;;;;;;;;;5035848;28;20053;-72
2021/07/26 01:48:14;;;;;;;10.15;7.93;;;;;;;;;;5034364;28;20474;-71
2021/07/26 01:50:47;;;;;;;16.10;7.90;;;;;;;;;;5035978;28;20484;-69
2021/07/26 01:53:14;;;;;;;13.85;8.55;;;;;;;;;;5035952;28;20079;-68
2021/07/26 01:55:40;;;;;;;12.13;9.05;;;;;;;;;;5034332;28;20026;-69
2021/07/26 01:58:06;;;;;;;16.52;9.18;;;;;;;;;;5035571;28;20022;-69
2021/07/26 02:00:33;;;;;;;12.70;8.30;;;;;;;;;;5035464;28;20454;-69
2021/07/26 02:03:00;;;;;;;15.52;8.52;;;;;;;;;;5035765;28;20017;-68
2021/07/26 02:05:27;;;;;;;11.20;8.63;;;;;;;;;;5034136;28;20466;-70
2021/07/26 02:07:53;;;;;;;10.57;7.85;;;;;;;;;;5035335;28;20117;-67
2021/07/26 02:10:20;;;;;;;10.98;7.22;;;;;;;;;;5035338;28;20537;-70
2021/07/26 02:12:46;;;;;;;12.40;8.35;;;;;;;;;;5033917;28;20156;-71
2021/07/26 02:15:12;;;;;;;14.35;8.70;;;;;;;;;;5033980;28;20060;-70
2021/07/26 02:17:38;;;;;;;10.35;8.38;;;;;;;;;;5033898;28;20029;-71
2021/07/26 02:20:05;;;;;;;15.38;8.07;;;;;;;;;;5035147;28;20064;-70
2021/07/26 02:22:31;;;;;;;13.30;8.35;;;;;;;;;;5034779;28;20382;-71
2021/07/26 02:24:58;;;;;;;13.57;8.45;;;;;;;;;;5034786;28;20398;-72
2021/07/26 02:27:24;;;;;;;14.18;8.75;;;;;;;;;;5034986;28;20208;-71
2021/07/26 02:29:51;;;;;;;13.90;9.35;;;;;;;;;;5033749;28;20117;-72
2021/07/26 02:32:17;;;;;;;12.05;8.60;;;;;;;;;;5033609;28;20030;-71
2021/07/26 02:34:43;;;;;;;11.18;8.45;;;;;;;;;;5033544;28;20018;-72
2021/07/26 02:37:09;;;;;;;17.60;9.27;;;;;;;;;;5034875;28;20065;-71
2021/07/26 02:39:36;;;;;;;10.55;8.15;;;;;;;;;;5035031;28;20022;-71
2021/07/26 02:42:03;;;;;;;13.05;8.23;;;;;;;;;;5034737;28;20030;-70
2021/07/26 02:44:29;;;;;;;11.55;8.55;;;;;;;;;;5034655;28;20025;-70
2021/07/26 02:46:55;;;;;;;11.05;9.00;;;;;;;;;;5033631;28;20106;-71
2021/07/26 02:49:21;;;;;;;10.65;8.82;;;;;;;;;;5034867;28;20108;-71
2021/07/26 02:51:48;;;;;;;11.65;8.95;;;;;;;;;;5033195;28;20111;-71
2021/07/26 02:54:14;;;;;;;11.68;9.05;;;;;;;;;;5032920;28;20108;-71
2021/07/26 02:56:42;;;;;;;20.15;10.50;;;;;;;;;;5033207;28;20036;-71
2021/07/26 02:59:09;;;;;;;19.35;9.18;;;;;;;;;;5033053;28;20164;-71
2021/07/26 03:01:35;;;;;;;17.13;9.60;;;;;;;;;;5033074;28;20450;-71
2021/07/26 03:04:01;;;;;;;12.00;8.95;;;;;;;;;;5034287;28;20104;-71
2021/07/26 03:06:27;;;;;;;18.42;10.73;;;;;;;;;;5032979;28;20028;-71
2021/07/26 03:08:54;;;;;;;22.45;11.50;;;;;;;;;;5033907;28;20430;-71
2021/07/26 03:11:20;;;;;;;16.63;9.15;;;;;;;;;;5034184;28;20030;-71
2021/07/26 03:13:46;;;;;;;13.57;9.30;;;;;;;;;;5032815;28;20409;-71
2021/07/26 03:16:13;;;;;;;15.30;9.77;;;;;;;;;;5034158;28;20192;-70
2021/07/26 03:18:40;;;;;;;16.98;8.90;;;;;;;;;;5034083;28;20029;-70
2021/07/26 03:21:06;;;;;;;20.83;9.60;;;;;;;;;;5032712;28;20108;-72
2021/07/26 03:23:33;;;;;;;15.60;9.70;;;;;;;;;;5033885;28;20014;-70
2021/07/26 03:25:59;;;;;;;62.92;25.90;;;;;;;;;;5033634;28;20528;-70
2021/07/26 03:28:25;;;;;;;17.02;11.43;;;;;;;;;;5033592;28;20394;-70
2021/07/26 03:30:51;;;;;;;16.70;10.15;;;;;;;;;;5033854;28;20018;-70
2021/07/26 03:33:18;;;;;;;13.30;9.43;;;;;;;;;;5032471;28;20018;-70
2021/07/26 03:35:44;;;;;;;12.80;9.52;;;;;;;;;;5034025;28;20024;-71
2021/07/26 03:38:10;;;;;;;12.95;9.20;;;;;;;;;;5033595;28;20100;-72
2021/07/26 03:40:36;;;;;;;10.13;7.88;;;;;;;;;;5032405;28;20056;-69
2021/07/26 03:43:02;;;;;;;13.13;9.18;;;;;;;;;;5032275;28;20025;-70
2021/07/26 03:45:29;;;;;;;11.13;8.82;;;;;;;;;;5033558;28;20410;-69
2021/07/26 03:47:59;;;;;;;15.77;9.00;;;;;;;;;;5033167;28;20443;-71
2021/07/26 03:50:25;;;;;;;12.75;8.90;;;;;;;;;;5033353;28;20026;-72
2021/07/26 03:52:52;;;;;;;17.75;10.13;;;;;;;;;;5032110;28;20018;-71
2021/07/26 03:55:20;;;;;;;19.75;11.27;;;;;;;;;;5032084;28;20492;-72
2021/07/26 03:57:47;;;;;;;19.55;11.48;;;;;;;;;;5033079;28;20478;-72
2021/07/26 04:00:15;;;;;;;12.00;8.57;;;;;;;;;;5033306;28;20526;-72
2021/07/26 04:02:44;;;;;;;10.57;7.55;;;;;;;;;;5033338;28;20022;-70
2021/07/26 04:05:19;;;;;;;12.23;8.13;;;;;;;;;;5031887;28;20025;-70
2021/07/26 04:07:47;;;;;;;19.67;9.07;;;;;;;;;;5033254;28;20028;-71
2021/07/26 04:10:14;;;;;;;12.68;8.15;;;;;;;;;;5031612;28;20039;-70
2021/07/26 04:12:44;;;;;;;13.90;8.57;;;;;;;;;;5032100;28;20087;-72
2021/07/26 04:15:11;;;;;;;16.58;8.88;;;;;;;;;;5031880;28;20470;-71
2021/07/26 04:17:38;;;;;;;14.85;9.32;;;;;;;;;;5033135;28;20032;-71
2021/07/26 04:20:05;;;;;;;14.45;8.60;;;;;;;;;;5033144;28;20133;-70
2021/07/26 04:22:31;;;;;;;13.98;8.68;;;;;;;;;;5031692;28;20021;-71
2021/07/26 04:24:57;;;;;;;14.95;9.85;;;;;;;;;;5033038;28;20049;-71
2021/07/26 04:27:26;;;;;;;15.23;10.15;;;;;;;;;;5032552;28;20045;-70
2021/07/26 04:29:54;;;;;;;12.98;9.80;;;;;;;;;;5032956;28;20025;-70
2021/07/26 04:32:20;;;;;;;17.50;9.15;;;;;;;;;;5033078;28;20027;-71
2021/07/26 04:34:46;;;;;;;11.75;8.73;;;;;;;;;;5032898;28;20521;-71
2021/07/26 04:37:12;;;;;;;13.95;8.52;;;;;;;;;;5031632;28;20029;-71
2021/07/26 04:39:38;;;;;;;14.20;8.32;;;;;;;;;;5033137;28;20056;-71
2021/07/26 04:42:05;;;;;;;13.80;8.55;;;;;;;;;;5032822;28;20031;-71
2021/07/26 04:44:31;;;;;;;24.27;13.77;;;;;;;;;;5032857;28;20026;-71
2021/07/26 04:46:57;;;;;;;56.65;26.55;;;;;;;;;;5032768;28;20034;-71
2021/07/26 04:49:23;;;;;;;33.38;16.02;;;;;;;;;;5031441;28;20116;-71
2021/07/26 04:51:50;;;;;;;16.02;9.13;;;;;;;;;;5032767;28;20092;-71
2021/07/26 04:54:16;;;;;;;10.30;7.70;;;;;;;;;;5031402;28;20047;-72
2021/07/26 04:56:42;;;;;;;13.77;7.88;;;;;;;;;;5032743;28;20126;-72
2021/07/26 04:59:08;;;;;;;11.98;8.13;;;;;;;;;;5032707;28;20022;-72
2021/07/26 05:01:35;;;;;;;11.88;8.05;;;;;;;;;;5032688;28;20021;-72
2021/07/26 05:04:01;;;;;;;9.07;7.68;;;;;;;;;;5032968;28;20108;-72
2021/07/26 05:06:28;;;;;;;13.50;7.55;;;;;;;;;;5032845;28;20036;-72
2021/07/26 05:08:54;;;;;;;10.40;8.05;;;;;;;;;;5032869;28;20028;-72
2021/07/26 05:11:23;;;;;;;13.52;8.05;;;;;;;;;;5035287;28;20034;-72
2021/07/26 05:13:50;;;;;;;14.57;8.07;;;;;;;;;;5035080;28;20034;-72
2021/07/26 05:16:16;;;;;;;13.55;8.15;;;;;;;;;;5035060;28;20110;-73
2021/07/26 05:18:42;;;;;;;13.68;9.50;;;;;;;;;;5034964;28;20420;-71
2021/07/26 05:21:08;;;;;;;16.90;10.68;;;;;;;;;;5034955;28;20024;-69
2021/07/26 05:23:34;;;;;;;14.18;9.23;;;;;;;;;;5036241;28;20025;-70
2021/07/26 05:26:00;;;;;;;13.18;7.47;;;;;;;;;;5035858;28;20465;-70
2021/07/26 05:28:27;;;;;;;15.63;7.80;;;;;;;;;;5036172;28;20112;-71
2021/07/26 05:30:53;;;;;;;12.20;8.02;;;;;;;;;;5036331;28;20105;-70
2021/07/26 05:33:19;;;;;;;13.63;7.90;;;;;;;;;;5036063;28;20493;-70
2021/07/26 05:35:45;;;;;;;11.45;7.57;;;;;;;;;;5036185;28;20466;-71
2021/07/26 05:38:11;;;;;;;17.88;9.05;;;;;;;;;;5035949;28;20029;-70
2021/07/26 05:40:37;;;;;;;12.30;8.25;;;;;;;;;;5035832;28;20018;-72
2021/07/26 05:43:04;;;;;;;12.68;8.05;;;;;;;;;;5035682;28;20022;-73
2021/07/26 05:45:30;;;;;;;15.38;9.20;;;;;;;;;;5034204;28;20074;-71
2021/07/26 05:47:56;;;;;;;16.08;9.38;;;;;;;;;;5035367;28;20037;-71
2021/07/26 05:50:22;;;;;;;24.98;8.60;;;;;;;;;;5034379;28;20044;-69
2021/07/26 05:52:49;;;;;;;14.00;9.18;;;;;;;;;;5035915;28;20026;-70
2021/07/26 05:55:15;;;;;;;17.58;8.68;;;;;;;;;;5041276;28;20036;-70
2021/07/26 05:57:46;;;;;;;20.25;9.00;;;;;;;;;;5055545;28;20116;-70
2021/07/26 06:00:16;;;;;;;16.77;8.80;;;;;;;;;;5055533;28;20025;-71
2021/07/26 06:02:43;;;;;;;17.70;9.23;;;;;;;;;;5055448;28;20024;-70
2021/07/26 06:05:10;;;;;;;14.43;8.27;;;;;;;;;;5055375;28;20489;-70
2021/07/26 06:07:36;;;;;;;21.58;9.85;;;;;;;;;;5055304;28;20473;-70
2021/07/26 06:10:02;;;;;;;11.60;7.88;;;;;;;;;;5053433;28;20037;-71
2021/07/26 06:12:29;;;;;;;16.10;9.05;;;;;;;;;;5055246;28;20103;-72
2021/07/26 06:14:55;;;;;;;16.45;8.90;;;;;;;;;;5054937;28;20105;-70
2021/07/26 06:17:21;;;;;;;18.52;9.63;;;;;;;;;;5054713;28;20115;-71
2021/07/26 06:19:47;;;;;;;22.90;9.13;;;;;;;;;;5054385;28;20100;-71
2021/07/26 06:22:17;;;;;;;15.80;9.40;;;;;;;;;;5053338;28;20025;-70
2021/07/26 06:24:43;;;;;;;20.65;9.90;;;;;;;;;;5054662;28;20025;-70
2021/07/26 06:27:09;;;;;;;17.40;9.88;;;;;;;;;;5054061;28;20482;-70
2021/07/26 06:29:36;;;;;;;17.23;8.50;;;;;;;;;;5054349;28;20461;-70
2021/07/26 06:32:02;;;;;;;12.40;9.15;;;;;;;;;;5054929;28;20115;-71
2021/07/26 06:34:28;;;;;;;10.18;9.05;;;;;;;;;;5054534;28;20057;-70
2021/07/26 06:36:55;;;;;;;13.57;9.30;;;;;;;;;;5054770;28;20031;-71
2021/07/26 06:39:21;;;;;;;17.30;9.35;;;;;;;;;;5054670;28;20047;-71
2021/07/26 06:41:47;;;;;;;18.40;9.85;;;;;;;;;;5053274;28;20108;-71
2021/07/26 06:44:16;;;;;;;13.20;9.38;;;;;;;;;;5054647;28;20028;-70
2021/07/26 06:46:43;;;;;;;13.60;9.27;;;;;;;;;;5054159;28;20036;-70
2021/07/26 06:49:09;;;;;;;18.55;9.45;;;;;;;;;;5054616;28;20108;-71
2021/07/26 06:51:35;;;;;;;12.68;9.32;;;;;;;;;;5053947;28;20029;-71
2021/07/26 06:54:01;;;;;;;12.20;9.50;;;;;;;;;;5054214;28;20144;-71
2021/07/26 06:56:28;;;;;;;22.60;8.95;;;;;;;;;;5053013;28;20471;-71
2021/07/26 06:58:54;;;;;;;14.18;10.00;;;;;;;;;;5054314;28;20029;-70
2021/07/26 07:01:20;;;;;;;22.17;11.18;;;;;;;;;;5054290;28;20527;-71
2021/07/26 07:03:46;;;;;;;21.00;12.35;;;;;;;;;;5052876;28;20469;-70
2021/07/26 07:06:14;;;;;;;44.42;18.15;;;;;;;;;;5054294;28;20438;-70
2021/07/26 07:08:40;;;;;;;17.40;12.23;;;;;;;;;;5053750;28;20488;-70
2021/07/26 07:11:08;;;;;;;22.92;9.90;;;;;;;;;;5054348;28;20059;-70
2021/07/26 07:13:35;;;;;;;14.07;9.88;;;;;;;;;;5054056;28;20025;-70
2021/07/26 07:16:01;;;;;;;14.85;10.15;;;;;;;;;;5054002;28;20127;-70
2021/07/26 07:18:28;;;;;;;28.17;12.38;;;;;;;;;;5053779;28;20025;-70
2021/07/26 07:20:54;;;;;;;16.33;10.55;;;;;;;;;;5053874;28;20021;-70
2021/07/26 07:23:20;;;;;;;24.70;10.52;;;;;;;;;;5053834;28;20096;-70
2021/07/26 07:25:46;;;;;;;16.38;10.45;;;;;;;;;;5053827;28;20021;-70
2021/07/26 07:28:13;;;;;;;18.70;10.50;;;;;;;;;;5053320;28;20132;-70
2021/07/26 07:30:39;;;;;;;19.10;9.88;;;;;;;;;;5052405;28;20032;-70
2021/07/26 07:33:05;;;;;;;14.95;10.57;;;;;;;;;;5053073;28;20159;-70
2021/07/26 07:35:31;;;;;;;15.20;10.85;;;;;;;;;;5053355;28;20095;-70
2021/07/26 07:37:57;;;;;;;17.13;10.95;;;;;;;;;;5052703;28;20123;-70
2021/07/26 07:40:24;;;;;;;16.70;11.13;;;;;;;;;;5053235;28;20025;-70
2021/07/26 07:42:50;;;;;;;18.25;10.43;;;;;;;;;;5053450;28;20484;-70
2021/07/26 07:45:17;;;;;;;15.40;10.40;;;;;;;;;;5053643;28;20100;-70
2021/07/26 07:47:43;;;;;;;13.02;9.15;;;;;;;;;;5052818;28;20044;-70
2021/07/26 07:50:12;;;;;;;15.43;9.43;;;;;;;;;;5052293;28;20031;-70
2021/07/26 07:52:39;;;;;;;17.70;10.10;;;;;;;;;;5051907;28;20024;-70
2021/07/26 07:55:05;;;;;;;14.52;10.00;;;;;;;;;;5052901;28;20416;-70
2021/07/26 07:57:35;;;;;;;14.50;9.82;;;;;;;;;;5052789;28;20099;-70
2021/07/26 08:00:01;;;;;;;15.63;9.55;;;;;;;;;;5053255;28;20056;-70
2021/07/26 08:02:28;;;;;;;17.00;9.95;;;;;;;;;;5051970;28;20092;-70
2021/07/26 08:04:54;;;;;;;14.63;11.05;;;;;;;;;;5053186;28;20528;-70
2021/07/26 08:07:20;;;;;;;13.32;9.75;;;;;;;;;;5052841;28;20044;-70
2021/07/26 08:09:46;;;;;;;14.35;10.70;;;;;;;;;;5052969;28;20154;-70
2021/07/26 08:12:14;;;;;;;16.67;10.82;;;;;;;;;;5052763;28;20099;-70
2021/07/26 08:14:40;;;;;;;18.83;11.45;;;;;;;;;;5052978;28;20450;-70
2021/07/26 08:17:06;;;;;;;21.20;9.70;;;;;;;;;;5051619;28;20052;-70
2021/07/26 08:19:33;;;;;;;13.38;9.80;;;;;;;;;;5053058;28;20049;-70
2021/07/26 08:21:59;;;;;;;14.43;10.80;;;;;;;;;;5052980;28;20025;-70
2021/07/26 08:24:25;;;;;;;30.60;14.10;;;;;;;;;;5050858;28;20052;-71
2021/07/26 08:26:51;;;;;;;13.93;10.05;;;;;;;;;;5052507;28;20056;-69
2021/07/26 08:29:17;;;;;;;18.30;11.13;;;;;;;;;;5051574;28;20025;-70
2021/07/26 08:31:44;;;;;;;14.95;10.40;;;;;;;;;;5038330;28;20462;-70
2021/07/26 08:34:10;;;;;;;18.65;10.57;;;;;;;;;;5032952;28;20033;-70
2021/07/26 08:36:36;;;;;;;20.95;10.93;;;;;;;;;;5032656;28;20036;-70
2021/07/26 08:39:03;;;;;;;16.05;11.45;;;;;;;;;;5032463;28;20623;-70
2021/07/26 08:41:29;;;;;;;19.92;11.80;;;;;;;;;;5032833;28;20459;-71
2021/07/26 08:43:55;;;;;;;24.95;14.05;;;;;;;;;;5033223;28;20500;-70
2021/07/26 08:46:21;;;;;;;17.65;12.35;;;;;;;;;;5036626;28;20029;-70
2021/07/26 08:48:49;;;;;;;15.48;11.93;;;;;;;;;;5036861;28;20025;-70
2021/07/26 08:51:17;;;;;;;28.83;15.55;;;;;;;;;;5035551;28;20091;-70
2021/07/26 08:53:44;;;;;;;22.00;14.20;;;;;;;;;;5036773;28;20029;-71
2021/07/26 08:56:10;;;;;;;21.67;13.25;;;;;;;;;;5036758;28;20057;-71
2021/07/26 08:58:37;;;;;;;18.67;12.55;;;;;;;;;;5036664;28;20437;-71
2021/07/26 09:01:04;;;;;;;32.65;13.85;;;;;;;;;;5035375;28;20033;-70
2021/07/26 09:03:30;;;;;;;16.10;13.25;;;;;;;;;;5036561;28;20105;-70
2021/07/26 09:05:56;;;;;;;17.13;12.25;;;;;;;;;;5036292;28;20362;-71
2021/07/26 09:08:22;;;;;;;21.27;13.05;;;;;;;;;;5036427;28;20033;-70
2021/07/26 09:10:48;;;;;;;21.50;13.35;;;;;;;;;;5035068;28;20079;-71
2021/07/26 09:13:32;;;;;;;21.55;13.27;;;;;;;;;;5036388;28;20040;-70
2021/07/26 09:16:13;;;;;;;22.33;13.25;;;;;;;;;;5038944;28;20027;-70
2021/07/26 09:18:39;;;;;;;26.10;13.07;;;;;;;;;;5044946;28;20536;-70
2021/07/26 09:21:05;;;;;;;19.33;12.13;;;;;;;;;;5043513;28;20104;-70
2021/07/26 09:23:32;;;;;;;16.98;12.40;;;;;;;;;;5046488;28;20100;-70
2021/07/26 09:26:00;;;;;;;24.85;12.80;;;;;;;;;;5048442;28;20028;-71
2021/07/26 09:28:32;;;;;;;20.02;12.88;;;;;;;;;;5056321;28;20085;-70
2021/07/26 09:30:58;;;;;;;16.95;11.95;;;;;;;;;;5056023;28;20036;-70
2021/07/26 09:33:26;;;;;;;17.85;13.18;;;;;;;;;;5056051;28;20021;-70
2021/07/26 09:36:28;;;;;;;19.67;12.32;;;;;;;;;;5055882;28;20396;-70
2021/07/26 09:38:58;;;;;;;20.73;12.57;;;;;;;;;;4993302;28;20038;-70
2021/07/26 09:41:45;;;;;;;17.27;13.07;;;;;;;;;;4994131;28;20038;-70
2021/07/26 09:44:12;;;;;;;16.83;13.13;;;;;;;;;;4977692;28;20087;-70
2021/07/26 09:46:43;;;;;;;17.90;13.30;;;;;;;;;;4977482;28;20042;-69
2021/07/26 09:49:18;;;;;;;18.73;12.55;;;;;;;;;;4977765;28;20026;-70
2021/07/26 09:52:03;;;;;;;19.20;13.05;;;;;;;;;;4993606;28;20125;-70
2021/07/26 09:54:45;;;;;;;15.15;12.63;;;;;;;;;;4993907;28;20435;-70
2021/07/26 09:57:18;;;;;;;16.58;13.45;;;;;;;;;;4993155;28;20042;-71
2021/07/26 09:59:45;;;;;;;20.58;13.27;;;;;;;;;;4993735;28;20042;-71
2021/07/26 10:02:17;;;;;;;21.63;14.43;;;;;;;;;;4993716;28;20505;-70
2021/07/26 10:04:43;;;;;;;;;;;;;;;;;;4993875;28;20029;-70
2021/07/26 10:07:10;;;;;;;23.60;15.18;;;;;;;;;;4993129;28;19933;-71
2021/07/26 10:09:36;;;;;;;27.40;17.23;;;;;;;;;;4993568;28;20535;-70
2021/07/26 10:12:04;;;;;;;27.10;15.85;;;;;;;;;;5003796;28;20069;-70
2021/07/26 10:14:31;;;;;;;20.50;14.75;;;;;;;;;;5055172;28;20067;-70
2021/07/26 10:17:00;;;;;;;24.20;14.52;;;;;;;;;;5055099;28;20108;-70
2021/07/26 10:19:27;;;;;;;16.40;12.95;;;;;;;;;;5055139;28;20028;-70
2021/07/26 10:21:55;;;;;;;18.77;14.00;;;;;;;;;;5053901;28;20381;-70
2021/07/26 10:24:22;;;;;;;18.92;13.70;;;;;;;;;;5054940;28;20531;-70
2021/07/26 10:26:49;;;;;;;21.02;13.70;;;;;;;;;;5054697;28;20150;-70
2021/07/26 10:29:15;;;;;;;17.17;12.85;;;;;;;;;;5053562;28;20031;-70
2021/07/26 10:31:43;;;;;;;23.75;13.88;;;;;;;;;;5054851;28;20025;-70
2021/07/26 10:34:12;;;;;;;19.23;13.77;;;;;;;;;;5054522;28;20118;-70
2021/07/26 10:36:42;;;;;;;31.27;15.02;;;;;;;;;;5054764;28;20025;-70
2021/07/26 10:39:08;;;;;;;24.00;13.85;;;;;;;;;;5054338;28;20082;-70
2021/07/26 10:41:43;;;;;;;27.20;13.98;;;;;;;;;;5054735;28;20630;-70
2021/07/26 10:44:10;;;;;;;17.42;13.35;;;;;;;;;;5054189;28;20708;-71
2021/07/26 10:46:51;;;;;;;23.08;13.80;;;;;;;;;;5054087;28;20087;-70
2021/07/26 10:49:18;;;;;;;20.17;13.02;;;;;;;;;;5054340;28;20017;-71
2021/07/26 10:51:50;;;;;;;17.15;13.20;;;;;;;;;;5054472;28;20025;-69
2021/07/26 10:54:32;;;;;;;20.77;14.18;;;;;;;;;;5053986;28;20385;-69
2021/07/26 10:57:02;;;;;;;18.80;13.18;;;;;;;;;;5052838;28;20036;-69
2021/07/26 10:59:28;;;;;;;30.55;13.40;;;;;;;;;;5054459;28;20040;-69
2021/07/26 11:01:59;;;;;;;18.05;13.48;;;;;;;;;;5054244;28;20539;-68
2021/07/26 11:04:32;;;;;;;32.78;17.58;;;;;;;;;;5054155;28;20485;-69
2021/07/26 11:06:59;;;;;;;27.35;16.27;;;;;;;;;;5053819;28;20355;-69
2021/07/26 11:09:31;;;;;;;22.65;16.25;;;;;;;;;;5050641;28;20104;-69
2021/07/26 11:11:58;;;;;;;26.90;14.70;;;;;;;;;;5042132;28;20013;-70
2021/07/26 11:14:24;;;;;;;25.88;14.10;;;;;;;;;;5033491;28;20108;-69
2021/07/26 11:17:03;;;;;;;24.02;14.15;;;;;;;;;;5033070;28;20032;-68
2021/07/26 11:19:33;;;;;;;23.77;13.73;;;;;;;;;;5020342;28;20022;-68
2021/07/26 11:22:00;;;;;;;27.95;15.35;;;;;;;;;;5032712;28;20029;-68
2021/07/26 11:24:41;;;;;;;21.33;13.15;;;;;;;;;;5033854;28;20021;-72
2021/07/26 11:27:12;;;;;;;22.63;13.55;;;;;;;;;;5033756;28;20061;-68
2021/07/26 11:29:38;;;;;;;21.15;14.70;;;;;;;;;;5029007;28;20021;-68
2021/07/26 11:32:05;;;;;;;21.20;13.18;;;;;;;;;;5033700;28;20030;-68
2021/07/26 11:34:34;;;;;;;23.05;13.40;;;;;;;;;;5033475;28;20152;-68
2021/07/26 11:37:08;;;;;;;21.42;13.55;;;;;;;;;;5033637;28;20029;-68
2021/07/26 11:50:06;;;;;;;21.77;13.90;;;;;;;;;;5128820;27;20427;-67
2021/07/26 11:52:32;;;;;;;24.63;14.00;;;31.30;80.70;;;;;;5129850;27;20038;-70
2021/07/26 11:54:58;;;;;;;28.38;13.55;;;31.60;80.80;;;;;;5129957;28;20388;-71
2021/07/26 11:57:24;;;;;;;26.90;13.65;;;33.10;78.60;;;;;;5130656;27;20023;-69
2021/07/26 11:59:52;;;;;;;24.10;12.40;;;34.50;75.00;;;;;;5130864;27;20027;-69
2021/07/26 12:02:34;;;;;;;30.05;13.35;;;35.40;68.10;;;;;;5129586;28;20037;-69
2021/07/26 12:05:04;;;;;;;27.08;12.75;;;36.10;67.30;;;;;;5130746;27;20106;-70
2021/07/26 12:07:41;;;;;;;24.10;12.07;;;37.00;65.00;;;;;;5108284;28;20028;-70
2021/07/26 12:10:08;;;;;;;23.23;10.80;;;38.40;64.70;;;;;;5108599;28;20118;-69
2021/07/26 12:12:49;;;;;;;21.73;10.25;;;39.20;60.10;;;;;;5110070;28;20026;-70
2021/07/26 12:15:25;;;;;;;21.02;10.00;;;40.00;56.70;;;;;;5110401;28;20369;-69
2021/07/26 12:18:30;;;;;;;26.52;10.38;;;40.60;56.90;;;;;;5108713;28;20035;-71
2021/07/26 12:20:58;;;;;;;22.77;10.02;;;39.50;58.10;;;;;;5103217;28;20036;-69
2021/07/26 12:23:27;;;;;;;22.13;9.35;;;38.30;58.50;;;;;;5109869;28;20047;-68
2021/07/26 12:26:48;;;;;;;22.45;9.90;;;38.20;59.50;;;;;;5108813;28;20505;-69
2021/07/26 12:29:15;;;;;;;21.52;9.95;;;39.00;56.80;;;;;;5109536;28;20050;-68
2021/07/26 12:31:40;;;;;;;25.40;11.23;;;39.30;57.00;;;;;;5108517;28;20387;-69
2021/07/26 12:34:13;;;;;;;28.45;12.18;;;39.30;57.10;;;;;;5108469;28;20032;-70
2021/07/26 12:36:41;;;;;;;18.73;10.77;;;39.00;85.40;;;;;;5108309;28;20471;-69
2021/07/26 12:39:08;;;;;;;30.50;14.55;;;;;;;;;;5118878;28;20528;-69
2021/07/26 12:41:39;;;;;;;28.52;12.20;;;39.00;60.70;;;;;;5128698;28;20029;-70
2021/07/26 12:44:17;;;;;;;21.58;11.32;;;;;;;;;;5128483;28;20019;-68
2021/07/26 12:46:49;;;;;;;29.50;12.18;;;;;;;;;;5130090;27;20011;-70
2021/07/26 12:49:19;;;;;;;34.03;13.02;;;;;;;;;;5126564;27;20055;-68
2021/07/26 12:51:46;;;;;;;36.35;14.55;;;;;;;;;;5115199;28;20421;-68
2021/07/26 12:54:12;;;;;;;18.48;11.15;;;;;;;;;;5116351;28;20107;-70
2021/07/26 12:56:38;;;;;;;27.42;11.00;;;;;;;;;;5116323;28;20035;-69
2021/07/26 12:59:05;;;;;;;21.35;11.63;;;;;;;;;;5116516;28;20036;-69
2021/07/26 13:01:31;;;;;;;26.25;11.13;;;;;;;;;;5116016;28;20050;-69
2021/07/26 13:03:57;;;;;;;27.42;11.15;;;;;;;;;;5116128;28;20024;-68
2021/07/26 13:06:23;;;;;;;24.00;11.25;;;;;;;;;;5116143;28;20486;-72
2021/07/26 13:08:49;;;;;;;21.58;10.88;;;;;;;;;;5115351;28;20032;-71
2021/07/26 13:11:16;;;;;;;18.85;10.57;;;;;;;;;;5116040;28;20027;-71
2021/07/26 13:13:42;;;;;;;23.38;10.63;;;;;;;;;;5114553;28;20031;-69
2021/07/26 13:16:09;;;;;;;26.80;12.45;;;;;;;;;;5115844;28;20038;-72
2021/07/26 13:18:35;;;;;;;29.15;13.85;;;;;;;;;;5116212;28;20103;-68
2021/07/26 13:21:01;;;;;;;28.40;12.55;;;;;;;;;;5115526;28;20016;-69
2021/07/26 13:23:27;;;;;;;28.58;12.60;;;;;;;;;;5114354;28;20024;-70
2021/07/26 13:25:53;;;;;;;27.05;13.45;;;;;;;;;;5114327;28;20135;-70
2021/07/26 13:28:20;;;;;;;27.38;12.35;;;;;;;;;;5114310;28;20042;-70
2021/07/26 13:30:46;;;;;;;32.80;13.07;;;;;;;;;;5112990;28;20168;-70
2021/07/26 13:33:13;;;;;;;28.08;13.02;;;;;;;;;;5113962;28;20122;-69
2021/07/26 13:35:40;;;;;;;31.20;13.52;;;;;;;;;;5115306;28;20020;-72
2021/07/26 13:38:07;;;;;;;28.40;13.63;;;;;;;;;;5115429;28;20016;-70
2021/07/26 13:40:33;;;;;;;26.30;12.98;;;;;;;;;;5115526;28;20020;-71
2021/07/26 13:43:00;;;;;;;23.52;13.45;;;;;;;;;;5115467;28;20046;-71
2021/07/26 13:45:26;;;;;;;28.30;11.95;;;;;;;;;;5115372;28;20480;-71
2021/07/26 13:47:55;;;;;;;18.80;11.75;;;;;;;;;;5114992;28;20038;-71
2021/07/26 13:50:21;;;;;;;25.55;10.98;;;;;;;;;;5115332;28;20098;-73
2021/07/26 13:52:47;;;;;;;28.83;12.38;;;;;;;;;;5113878;28;20020;-72
2021/07/26 13:55:15;;;;;;;22.42;12.10;;;;;;;;;;5115194;28;20020;-72
2021/07/26 13:57:41;;;;;;;21.60;11.95;;;;;;;;;;5115158;28;20119;-72
2021/07/26 14:00:08;;;;;;;24.30;11.52;;;;;;;;;;5113723;28;20480;-73
2021/07/26 14:02:35;;;;;;;28.77;10.68;;;;;;;;;;5112686;28;20364;-72
2021/07/26 14:05:02;;;;;;;28.80;10.60;;;;;;;;;;5113487;28;20460;-71
2021/07/26 14:07:27;;;;;;;22.38;10.02;;;34.20;73.50;;;;;;5114447;28;20494;-71
2021/07/26 14:09:53;;;;;;;26.85;10.48;;;35.80;71.50;;;;;;5115115;28;20024;-71
2021/07/26 14:12:20;;;;;;;29.77;9.85;;;35.70;68.20;;;;;;5114116;28;20050;-72
2021/07/26 14:14:46;;;;;;;25.63;11.00;;;36.80;64.40;;;;;;5114754;28;20028;-72
2021/07/26 14:17:11;;;;;;;19.77;9.20;;;37.90;62.10;;;;;;5114508;28;20495;-71
2021/07/26 14:19:38;;;;;;;23.20;8.70;;;37.70;61.00;;;;;;5114457;28;20036;-71
2021/07/26 14:22:04;;;;;;;20.77;9.88;;;37.10;60.70;;;;;;5113468;28;20069;-71
2021/07/26 14:24:30;;;;;;;30.45;9.27;;;37.50;59.20;;;;;;5114358;28;20546;-71
2021/07/26 14:26:57;;;;;;;32.97;9.65;;;40.10;55.80;;;;;;5113222;28;20019;-72
2021/07/26 14:29:23;;;;;;;19.63;8.52;;;39.70;54.80;;;;;;5113165;28;20037;-71